Latest Weather Observations for Yunta

IDS60801

Issued at 7:01 pm CDT Wednesday 7 December 2016 (issued every 30 minutes, with the page automatically refreshed every 10 minutes)

About weather observations | Map of weather stations | Latest weather observations for SA | Other Formats
Station Details ID: 020062 Name: YUNTA AIRSTRIP Lat: -32.57 Lon: 139.56 Height: 300.0 m
Data from the previous 72 hours. | See also: Recent months at Yunta
Date/Time
CDT
Temp
°C
App
Temp
°C
Dew
Point
°C
Rel
Hum
%
Delta-T
°C
Wind Press
QNH
hPa
Press
MSL
hPa
Rain since
9am
mm
Dir  Spd
km/h
Gust
km/h
Spd
kts
Gust
kts
07/06:30pm 30.7 25.1 7.2 23 12.9 N 26 39 14 21 1007.4 1006.0 0.0
07/06:00pm 30.5 25.0 7.7 24 12.6 N 26 41 14 22 1007.7 1006.4 0.0
07/05:30pm 31.3 25.7 7.1 22 13.3 N 26 37 14 20 1008.1 1006.8 0.0
07/05:00pm 31.4 26.7 7.8 23 13.1 N 22 39 12 21 1008.6 1007.2 0.0
07/04:30pm 31.2 26.2 8.2 24 12.9 N 24 39 13 21 1009.1 1007.7 0.0
07/04:00pm 31.5 26.5 7.9 23 13.2 N 24 35 13 19 1009.5 1008.1 0.0
07/03:30pm 31.2 26.8 8.8 25 12.7 N 22 35 12 19 1009.9 1008.5 0.0
07/03:00pm 30.4 25.2 8.7 26 12.2 N 26 41 14 22 1010.6 1009.3 0.0
07/02:30pm 29.8 24.2 8.8 27 11.8 N 28 39 15 21 1011.2 1009.9 0.0
07/02:00pm 29.5 24.8 9.1 28 11.5 N 24 33 13 18 1012.0 1010.6 0.0
07/01:30pm 28.4 24.6 9.2 30 10.8 N 19 30 10 16 1012.6 1011.2 0.0
07/01:00pm 28.8 24.5 9.5 30 10.9 N 22 37 12 20 1012.9 1011.5 0.0
07/12:30pm 28.3 24.4 9.6 31 10.6 N 20 32 11 17 1013.4 1012.0 0.0
07/12:00pm 27.4 23.2 9.7 33 10.0 N 22 37 12 20 1013.9 1012.6 0.0
07/11:30am 26.2 21.9 9.5 35 9.3 N 22 32 12 17 1014.3 1013.0 0.0
07/11:00am 26.2 21.7 10.0 36 9.1 N 24 35 13 19 1014.5 1013.2 0.0
07/10:30am 25.4 21.8 10.4 39 8.5 N 20 28 11 15 1014.8 1013.5 0.0
07/10:00am 24.4 21.9 11.0 43 7.6 N 15 22 8 12 1015.0 1013.7 0.0
07/09:30am 22.9 20.6 13.1 54 5.7 N 17 24 9 13 1015.2 1013.9 0.0
07/09:00am 21.4 20.7 12.0 55 5.3 E 7 9 4 5 1015.5 1014.1 0.2
07/08:30am 19.6 18.7 9.2 51 5.6 E 4 7 2 4 1015.8 1014.4 0.2
07/08:00am 18.0 17.4 8.8 55 4.8 ESE 2 6 1 3 1015.7 1014.3 0.2
07/07:30am 16.5 16.2 8.7 60 4.1 CALM 0 0 0 0 1015.3 1014.0 0.2
07/07:00am 15.1 15.2 10.3 73 2.6 CALM 0 0 0 0 1015.2 1013.9 0.2
07/06:30am 14.1 13.6 10.9 81 1.7 SW 4 6 2 3 1014.9 1013.6 0.2
07/06:00am 12.7 12.5 10.4 86 1.2 WSW 2 6 1 3 1014.7 1013.4 0.2
07/05:30am 11.6 11.5 9.3 86 1.2 CALM 0 6 0 3 1014.4 1013.1 0.2
07/05:00am 12.0 11.2 9.7 86 1.2 WSW 4 6 2 3 1014.3 1013.0 0.2
07/04:30am 12.1 12.2 10.3 89 0.9 CALM 0 0 0 0 1014.0 1012.7 0.2
07/04:00am 12.4 11.8 10.3 87 1.1 SW 4 7 2 4 1013.8 1012.5 0.2
07/03:30am 12.4 12.2 10.5 88 1.0 SSW 2 13 1 7 1013.8 1012.5 0.2
07/03:00am 13.4 13.8 11.1 86 1.2 CALM 0 2 0 1 1013.6 1012.3 0.2
07/02:30am 12.7 12.1 10.4 86 1.2 NNE 4 6 2 3 1013.8 1012.5 0.2
07/02:00am 13.2 13.4 10.7 85 1.3 CALM 0 0 0 0 1014.2 1012.9 0.2
07/01:30am 14.1 14.5 11.4 84 1.5 CALM 0 0 0 0 1014.7 1013.4 0.2
07/01:00am 15.3 16.0 12.1 81 1.8 CALM 0 0 0 0 1015.1 1013.8 0.2
07/12:30am 15.9 15.9 12.3 79 2.0 E 4 6 2 3 1015.2 1013.9 0.2
07/12:00am 16.4 15.9 12.2 76 2.3 E 6 7 3 4 1015.5 1014.1 0.2
 
Date/Time
CDT
Temp
°C
App
Temp
°C
Dew
Point
°C
Rel
Hum
%
Delta-T
°C
Wind Press
QNH
hPa
Press
MSL
hPa
Rain since
9am
mm
Dir  Spd
km/h
Gust
km/h
Spd
kts
Gust
kts
06/11:30pm 17.5 17.6 12.8 74 2.7 NE 4 7 2 4 1015.7 1014.3 0.2
06/11:00pm 17.8 17.9 12.7 72 2.9 NE 4 7 2 4 1015.9 1014.5 0.2
06/10:30pm 18.7 18.5 12.9 69 3.3 NNE 6 7 3 4 1016.0 1014.6 0.2
06/10:00pm 19.8 19.0 13.0 65 3.9 N 9 13 5 7 1016.0 1014.6 0.2
06/09:30pm 19.9 19.3 12.4 62 4.3 NNE 7 11 4 6 1015.8 1014.4 0.2
06/09:00pm 20.9 19.8 8.5 45 6.6 NE 4 9 2 5 1015.6 1014.2 0.2
06/08:30pm 21.4 20.0 7.3 40 7.4 E 4 4 2 2 1015.1 1013.8 0.2
06/08:00pm 22.6 20.5 6.0 34 8.5 ENE 6 7 3 4 1014.9 1013.6 0.2
06/07:30pm 24.2 22.0 6.0 31 9.4 ENE 7 13 4 7 1014.6 1013.3 0.2
06/07:00pm 24.8 22.7 5.6 29 9.9 E 6 11 3 6 1014.5 1013.2 0.2
06/06:30pm 24.4 22.1 5.7 30 9.7 ENE 7 13 4 7 1014.0 1012.7 0.2
06/06:00pm 24.0 21.9 5.8 31 9.4 ESE 6 9 3 5 1014.0 1012.7 0.2
06/05:30pm 24.4 22.3 5.7 30 9.7 E 6 9 3 5 1014.0 1012.7 0.2
06/05:00pm 23.9 22.4 6.7 33 9.0 NE 4 9 2 5 1013.9 1012.6 0.2
06/04:30pm 22.7 21.6 8.4 40 7.7 ENE 4 7 2 4 1014.3 1013.0 0.2
06/04:00pm 22.7 20.8 6.5 35 8.4 ESE 6 9 3 5 1014.4 1013.1 0.2
06/03:30pm 22.5 21.6 7.9 39 7.8 SSE 2 6 1 3 1014.7 1013.4 0.2
06/03:00pm 21.7 19.8 6.8 38 7.7 NE 6 13 3 7 1014.7 1013.4 0.2
06/02:30pm 21.5 19.8 7.7 41 7.3 E 6 11 3 6 1015.0 1013.7 0.2
06/02:00pm 21.1 19.6 8.4 44 6.8 E 6 11 3 6 1015.2 1013.9 0.2
06/01:30pm 20.1 18.3 7.8 45 6.4 ESE 7 15 4 8 1015.7 1014.3 0.2
06/01:00pm 20.1 18.5 8.1 46 6.3 SSE 6 11 3 6 1016.1 1014.7 0.2
06/12:30pm 19.4 17.6 9.3 52 5.4 ESE 9 17 5 9 1015.2 1013.9 0.2
06/12:00pm 18.3 15.9 8.8 54 5.0 E 11 17 6 9 1015.7 1014.3 0.2
06/11:30am 17.5 15.0 8.4 55 4.7 ESE 11 17 6 9 1016.3 1014.9 0.0
06/11:00am 16.5 14.5 8.7 60 4.1 SE 9 15 5 8 1016.4 1015.0 0.0
06/10:30am 15.9 13.9 8.6 62 3.8 SE 9 13 5 7 1016.4 1015.0 0.0
06/10:00am 15.2 12.9 9.1 67 3.2 SE 11 17 6 9 1016.2 1014.8 0.0
06/09:30am 15.0 12.5 9.8 71 2.7 SE 13 17 7 9 1016.2 1014.8 0.0
06/09:00am 15.0 13.1 10.6 75 2.4 SE 11 15 6 8 1016.3 1014.9 5.2
06/08:30am 15.0 13.5 10.4 74 2.5 ESE 9 17 5 9 1015.7 1014.3 5.2
06/08:00am 15.2 13.7 10.6 74 2.5 S 9 17 5 9 1015.6 1014.2 5.2
06/07:30am 15.2 14.5 12.0 81 1.8 SSW 7 13 4 7 1015.1 1013.8 5.2
06/07:00am 15.2 15.6 11.4 78 2.1 CALM 0 6 0 3 1014.6 1013.3 5.2
06/06:30am 15.3 15.8 11.5 78 2.1 CALM 0 0 0 0 1013.9 1012.6 5.0
06/06:00am 15.2 14.5 11.4 78 2.1 S 6 7 3 4 1013.9 1012.6 5.0
06/05:30am 17.1 18.7 14.9 87 1.3 CALM 0 9 0 5 1013.6 1012.3 5.0
06/05:00am 17.0 18.5 14.6 86 1.4 CALM 0 0 0 0 1013.5 1012.2 5.0
06/04:30am 17.1 18.7 14.9 87 1.3 CALM 0 0 0 0 1013.6 1012.3 5.0
06/04:00am 17.1 18.6 14.7 86 1.4 CALM 0 0 0 0 1013.3 1011.9 5.0
06/03:30am 16.9 18.0 14.5 86 1.4 W 2 4 1 2 1013.3 1011.9 4.8
06/03:00am 17.0 17.7 14.5 85 1.5 W 4 6 2 3 1012.9 1011.5 4.8
06/02:30am 17.0 16.7 14.5 85 1.5 WSW 9 13 5 7 1013.1 1011.7 4.8
06/02:00am 16.9 17.2 14.4 85 1.5 WSW 6 7 3 4 1012.6 1011.2 4.8
06/01:30am 16.9 17.6 14.4 85 1.5 SW 4 4 2 2 1012.6 1011.2 4.8
06/01:00am 17.0 16.7 14.3 84 1.6 SSW 9 13 5 7 1012.7 1011.3 4.8
06/12:30am 17.1 18.6 14.6 85 1.5 CALM 0 0 0 0 1012.6 1011.2 4.8
06/12:00am 17.1 18.2 14.6 85 1.5 E 2 6 1 3 1013.2 1011.8 4.8
 
Date/Time
CDT
Temp
°C
App
Temp
°C
Dew
Point
°C
Rel
Hum
%
Delta-T
°C
Wind Press
QNH
hPa
Press
MSL
hPa
Rain since
9am
mm
Dir  Spd
km/h
Gust
km/h
Spd
kts
Gust
kts
05/11:30pm 17.2 18.6 14.3 83 1.7 CALM 0 0 0 0 1013.4 1012.0 4.8
05/11:00pm 17.2 17.6 13.7 80 2.0 SE 4 6 2 3 1013.7 1012.4 4.8
05/10:30pm 17.3 16.9 14.0 81 1.9 SSW 9 13 5 7 1013.9 1012.6 4.8
05/10:00pm 17.2 17.8 14.3 83 1.7 WSW 4 7 2 4 1013.3 1011.9 4.8
05/09:30pm 16.8 16.7 13.9 83 1.7 ENE 7 13 4 7 1012.0 1010.6 4.8
05/09:00pm 17.2 16.9 13.3 78 2.2 E 7 9 4 5 1012.3 1010.9 4.8
05/08:30pm 17.9 17.3 13.4 75 2.6 ESE 9 13 5 7 1012.6 1011.2 4.8
05/08:00pm 18.1 17.5 13.4 74 2.7 ESE 9 11 5 6 1012.7 1011.3 4.8
05/07:30pm 18.4 17.7 13.3 72 2.9 E 9 15 5 8 1012.8 1011.4 4.8
05/07:00pm 18.3 17.7 13.4 73 2.8 ESE 9 11 5 6 1012.8 1011.4 4.8
05/06:30pm 18.4 17.9 13.9 75 2.6 SSE 9 13 5 7 1012.9 1011.5 4.8
05/06:00pm 18.6 18.6 13.5 72 2.9 SSE 6 9 3 5 1012.5 1011.1 4.8
05/05:30pm 18.3 18.2 13.4 73 2.8 SE 6 9 3 5 1012.1 1010.7 4.8
05/05:00pm 18.1 18.0 14.0 77 2.4 SE 7 11 4 6 1012.1 1010.7 4.8
05/04:30pm 17.7 16.4 13.6 77 2.4 ESE 13 17 7 9 1011.7 1010.4 4.8
05/04:00pm 17.6 16.8 14.1 80 2.0 SE 11 17 6 9 1012.8 1011.4 4.6
05/03:30pm 18.8 17.5 12.5 67 3.6 SSE 11 19 6 10 1012.5 1011.1 3.2
05/03:00pm 19.6 19.2 14.0 70 3.3 SE 9 15 5 8 1012.3 1010.9 2.4
05/02:30pm 20.1 19.2 13.8 67 3.7 SSE 11 17 6 9 1012.6 1011.2 2.0
05/02:00pm 19.0 17.5 14.3 74 2.8 SSE 15 20 8 11 1012.7 1011.3 2.0
05/01:30pm 22.6 20.5 11.0 48 6.5 SSE 13 26 7 14 1013.0 1011.6 0.0
05/01:00pm 22.3 19.6 11.7 51 6.0 SSE 17 20 9 11 1012.8 1011.4 0.0
05/12:30pm 23.0 19.8 11.4 48 6.6 S 19 26 10 14 1012.6 1011.2 0.0
05/12:00pm 22.8 20.5 11.8 50 6.3 SE 15 24 8 13 1012.4 1011.0 0.0
05/11:30am 22.6 20.2 12.8 54 5.7 SSE 17 24 9 13 1011.7 1010.4 0.0
05/11:00am 21.5 19.9 12.9 58 5.0 SSE 13 22 7 12 1012.3 1010.9 0.0
05/10:30am 20.8 18.4 12.8 60 4.6 SSE 17 24 9 13 1011.8 1010.5 0.0
05/10:00am 20.2 17.9 12.9 63 4.2 SE 17 22 9 12 1012.0 1010.6 0.0
05/09:30am 21.1 18.9 13.3 61 4.5 SSE 17 24 9 13 1012.4 1011.0 0.0
05/09:00am 20.0 17.8 13.2 65 3.9 SE 17 24 9 13 1012.9 1011.5 0.0
05/08:30am 19.3 17.4 13.0 67 3.6 SSE 15 20 8 11 1012.6 1011.2 0.0
05/08:00am 19.5 16.3 13.2 67 3.6 S 22 30 12 16 1012.5 1011.1 0.0
05/07:30am 19.6 17.1 13.5 68 3.5 S 19 28 10 15 1012.4 1011.0 0.0
05/07:00am 19.5 18.2 13.7 69 3.4 SSE 13 20 7 11 1011.4 1010.1 0.0
05/06:30am 19.6 18.0 13.8 69 3.4 S 15 20 8 11 1011.2 1009.9 0.0
05/06:00am 19.8 17.6 13.3 66 3.8 S 17 24 9 13 1010.3 1008.9 0.0
05/05:30am 20.7 17.9 13.2 62 4.3 SSW 20 28 11 15 1009.9 1008.5 0.0
05/05:00am 21.5 20.8 13.2 59 4.8 SSW 9 13 5 7 1009.7 1008.3 0.0
05/04:30am 21.9 21.2 13.3 58 5.0 SSW 9 13 5 7 1008.9 1007.5 0.0
05/04:00am 22.1 20.3 13.2 57 5.2 SW 15 19 8 10 1008.8 1007.4 0.0
05/03:30am 22.6 20.1 13.4 56 5.4 SSW 19 26 10 14 1008.8 1007.4 0.0
05/03:00am 23.2 22.5 14.2 57 5.4 SW 11 13 6 7 1008.9 1007.5 0.0
05/02:30am 24.1 23.4 14.2 54 5.9 SSW 11 17 6 9 1008.9 1007.5 0.0
05/02:00am 24.9 22.7 14.4 52 6.3 SSW 19 22 10 12 1009.0 1007.6 0.0
05/01:30am 25.7 24.2 14.2 49 6.9 WSW 15 19 8 10 1009.1 1007.7 0.0
05/01:00am 26.5 24.1 14.3 47 7.4 WSW 20 28 11 15 1008.9 1007.5 0.0
05/12:30am 29.9 26.3 10.5 30 11.2 NW 20 28 11 15 1008.0 1006.7 0.0
05/12:00am 28.3 26.4 10.5 33 10.2 NNW 11 15 6 8 1007.9 1006.6 0.0
 
Date/Time
CDT
Temp
°C
App
Temp
°C
Dew
Point
°C
Rel
Hum
%
Delta-T
°C
Wind Press
QNH
hPa
Press
MSL
hPa
Rain since
9am
mm
Dir  Spd
km/h
Gust
km/h
Spd
kts
Gust
kts
04/11:30pm 28.5 25.9 10.7 33 10.3 NNW 15 17 8 9 1007.8 1006.5 0.0
04/11:00pm 29.8 27.1 10.4 30 11.2 NNW 15 17 8 9 1007.6 1006.3 0.0
04/10:30pm 29.9 27.6 10.5 30 11.2 NW 13 17 7 9 1007.5 1006.1 0.0
04/10:00pm 29.2 27.0 10.8 32 10.6 NNW 13 17 7 9 1007.7 1006.4 0.0
04/09:30pm 29.0 26.5 11.1 33 10.4 N 15 19 8 10 1007.1 1005.7 0.0
04/09:00pm 29.8 26.7 10.4 30 11.2 NNW 17 19 9 10 1007.0 1005.6 0.0
04/08:30pm 29.8 27.6 10.9 31 11.0 N 13 17 7 9 1006.4 1005.0 0.0
04/08:00pm 30.4 27.7 10.4 29 11.5 N 15 20 8 11 1005.9 1004.5 0.0
04/07:30pm 31.3 27.2 10.1 27 12.3 N 22 30 12 16 1005.7 1004.3 0.0

Other Formats:

Comma delimited format used in spreadsheet applications
http://www.bom.gov.au/fwo/IDS60801/IDS60801.94684.axf

JavaScript Object Notation format (JSON) in row-major order
http://www.bom.gov.au/fwo/IDS60801/IDS60801.94684.json